Flight Track Log - Related Links

Times and Time Zones

All times are in EDT time to prevent confusion due to time zone crossing. See the N682RW flight status page for this flight to view local times or setup timezone preferences in your user account.

Time Position Orientation Groundspeed Altitude Reporting Facility
EDT Latitude Longitude Course Direction KTS MPH feet Rate Location/Type
Mon 03:07:57 PM 44.7322 -85.6328 173° South 182 209 2,200  Level Minneapolis Center
Mon 03:09:00 PM 44.6597 -85.6203 173° South 252 290 5,100 2,784 Climbing Minneapolis Center
Mon 03:10:02 PM 44.6019 -85.5472 138° Southeast 269 310 8,000 2,516 Climbing Minneapolis Center
Mon 03:11:04 PM 44.5208 -85.4544 141° Southeast 303 349 10,300 2,081 Climbing Minneapolis Center
Mon 03:12:06 PM 44.4378 -85.3656 143° Southeast 358 412 12,300 2,226 Climbing Minneapolis Center
Mon 03:13:08 PM 44.3519 -85.2669 141° Southeast 389 448 14,900 2,323 Climbing Minneapolis Center
Mon 03:14:10 PM 44.2633 -85.1661 141° Southeast 405 466 17,100 1,839 Climbing Minneapolis Center
Mon 03:15:12 PM 44.1694 -85.0622 142° Southeast 422 486 18,700 1,584 Climbing Minneapolis Center
Mon 03:16:15 PM 44.0731 -84.9528 141° Southeast 439 505 20,400 1,824 Climbing Minneapolis Center
Mon 03:17:17 PM 43.9500 -84.8381 146° Southeast 463 533 22,500 1,742 Climbing Minneapolis Center
Mon 03:18:19 PM 43.8325 -84.7556 153° Southeast 475 547 24,000 1,452 Climbing Minneapolis Center
Mon 03:19:21 PM 43.7367 -84.6258 136° Southeast 479 551 25,500 1,403 Climbing Minneapolis Center
Mon 03:20:23 PM 43.6311 -84.5019 140° Southeast 491 565 26,900 1,200 Climbing Minneapolis Center
Mon 03:21:26 PM 43.5236 -84.3753 139° Southeast 501 577 28,000 1,200 Climbing Minneapolis Center
Mon 03:22:28 PM 43.3911 -84.2242 140° Southeast 511 588 29,400 1,361 Climbing Minneapolis Center
Mon 03:23:03 PM 43.3206 -84.1447 141° Southeast 520 598 30,200 990 Climbing Cleveland Center
Mon 03:24:05 PM 43.2103 -84.0186 140° Southeast 516 594 31,000 387 Climbing Cleveland Center
Mon 03:25:07 PM 43.1069 -83.9006 140° Southeast 514 592 31,000  Level Cleveland Center
Mon 03:26:09 PM 43.0114 -83.7550 132° Southeast 514 592 31,000  Level Cleveland Center
Mon 03:27:11 PM 42.9117 -83.6161 134° Southeast 513 590 31,000  Level Cleveland Center
Mon 03:28:13 PM 42.7908 -83.4458 134° Southeast 519 597 31,000  Level Cleveland Center
Mon 03:29:15 PM 42.6892 -83.3072 135° Southeast 517 595 31,000  Level Cleveland Center
Mon 03:30:18 PM 42.5883 -83.1667 134° Southeast 515 593 31,000 -432 Level Cleveland Center
Mon 03:31:20 PM 42.4853 -83.0267 135° Southeast 518 596 30,100 -919 Descending Cleveland Center
Mon 03:32:22 PM 42.3831 -82.8856 134° Southeast 520 598 29,100 -532 Descending Cleveland Center
Mon 03:33:24 PM 42.2781 -82.7464 136° Southeast 524 603 29,000 -48 Descending Cleveland Center
Mon 03:34:26 PM 42.1761 -82.6056 134° Southeast 524 603 29,000  Level Cleveland Center
Mon 03:35:28 PM 42.0531 -82.4392 135° Southeast 522 601 29,000  Level Cleveland Center
Mon 03:36:30 PM 41.9489 -82.3008 135° Southeast 525 604 29,000  Level Cleveland Center
Mon 03:37:32 PM 41.8456 -82.1644 135° Southeast 523 602 29,000  Level Cleveland Center
Mon 03:38:34 PM 41.7322 -82.0139 135° Southeast 526 605 29,000 -484 Level Cleveland Center
Mon 03:39:36 PM 41.6283 -81.8756 135° Southeast 523 602 28,000 -1,210 Descending Cleveland Center
Mon 03:40:38 PM 41.5244 -81.7406 136° Southeast 516 594 26,500 -1,488 Descending Cleveland Center
Mon 03:41:41 PM 41.4236 -81.6081 135° Southeast 500 575 24,900 -1,104 Descending Cleveland Center
Mon 03:42:43 PM 41.3306 -81.4875 136° Southeast 488 562 24,200 -919 Descending Cleveland Center
Mon 03:43:45 PM 41.2253 -81.3531 136° Southeast 480 552 23,000 -1,742 Descending Cleveland Center
Mon 03:44:47 PM 41.1294 -81.2308 136° Southeast 473 544 20,600 -2,468 Descending Cleveland Center
Mon 03:45:49 PM 41.0589 -81.0886 123° Southeast 461 531 17,900 -2,565 Descending Cleveland Center
Mon 03:46:51 PM 40.9961 -80.9322 118° Southeast 449 517 15,300 -2,710 Descending Cleveland Center
Mon 03:47:53 PM 40.9383 -80.7950 119° Southeast 430 495 12,300 -2,371 Descending Cleveland Center
Mon 03:48:55 PM 40.8853 -80.6703 119° Southeast 392 451 10,400 -1,113 Descending Cleveland Center
Mon 03:49:57 PM 40.8089 -80.5572 132° Southeast 378 435 10,000 -194 Descending Cleveland Center
Mon 03:50:59 PM 40.7522 -80.4447 124° Southeast 368 423 10,000  Level Cleveland Center
Mon 03:52:01 PM 40.6903 -80.3258 124° Southeast 366 421 10,000 -387 Level Cleveland Center
Mon 03:53:03 PM 40.6422 -80.2317 124° Southeast 323 372 9,200 -1,016 Descending Cleveland Center
Mon 03:54:05 PM 40.5969 -80.1417 124° Southeast 302 348 7,900 -1,440 Descending Cleveland Center
Mon 03:55:08 PM 40.5522 -80.0589 125° Southeast 285 328 6,200 -1,776 Descending Cleveland Center
Mon 03:56:10 PM 40.4831 -80.0636 183° South 260 299 4,200 -1,790 Descending Cleveland Center
Mon 03:57:12 PM 40.4842 -80.1408 271° West 194 223 2,500 -1,355 Descending Cleveland Center
Mon 03:58:14 PM 40.4847 -80.1978 271° West 166 191 1,400 -1,065 Descending Cleveland Center

Login

Don't have an account? Register now (free) for customized features, flight alerts, and more!